Time;durP1;ratioP1;P1;durP2;ratioP2;P2;SDS_P1;SDS_P2;PMS_P1;PMS_P2;Temp;Humidity;BMP_temperature;BMP_pressure;BME280_temperature;BME280_humidity;BME280_pressure;Samples;Min_cycle;Max_cycle;Signal;HPM_P1;HPM_P2
2023/10/05 00:01:18;;;;;;;11.70;7.00;;;13.00;1.00;;;;;;5077798;28;20901;-60
2023/10/05 00:03:47;;;;;;;10.20;5.23;;;13.00;1.00;;;;;;5078184;28;20544;-60
2023/10/05 00:06:16;;;;;;;13.57;6.33;;;13.00;1.00;;;;;;5078388;28;20485;-60
2023/10/05 00:08:47;;;;;;;11.70;5.73;;;13.00;1.00;;;;;;5077712;28;20496;-60
2023/10/05 00:11:23;;;;;;;13.97;6.90;;;13.00;1.00;;;;;;5078326;28;20461;-60
2023/10/05 00:13:50;;;;;;;11.50;6.17;;;13.00;1.00;;;;;;5076210;28;20762;-60
2023/10/05 00:16:21;;;;;;;10.50;6.30;;;13.00;1.00;;;;;;5076434;28;20525;-60
2023/10/05 00:18:50;;;;;;;11.80;5.80;;;13.00;1.00;;;;;;5075706;28;20486;-59
2023/10/05 00:21:21;;;;;;;10.80;5.60;;;13.10;1.00;;;;;;5076030;28;20506;-60
2023/10/05 00:23:57;;;;;;;11.70;5.33;;;13.10;1.00;;;;;;5073186;28;20469;-58
2023/10/05 00:26:28;;;;;;;12.47;5.20;;;13.10;99.90;;;;;;5076085;28;20522;-60
2023/10/05 00:29:04;;;;;;;8.17;5.13;;;13.10;1.00;;;;;;5077476;28;20912;-60
2023/10/05 00:31:33;;;;;;;8.33;4.57;;;13.10;99.90;;;;;;5077603;28;20468;-60
2023/10/05 00:34:02;;;;;;;11.77;5.20;;;13.10;1.00;;;;;;5076679;28;20893;-60
2023/10/05 00:36:35;;;;;;;10.93;5.30;;;13.10;1.00;;;;;;5076900;28;20436;-60
2023/10/05 00:39:07;;;;;;;9.47;5.00;;;13.10;99.90;;;;;;5076970;28;20472;-60
2023/10/05 00:41:34;;;;;;;12.53;5.17;;;13.10;99.90;;;;;;5077376;28;20670;-60
2023/10/05 00:44:02;;;;;;;8.40;5.23;;;13.10;99.90;;;;;;5077114;28;20458;-60
2023/10/05 00:46:32;;;;;;;14.00;6.57;;;13.10;99.90;;;;;;5076075;28;20539;-60
2023/10/05 00:49:05;;;;;;;9.30;5.60;;;13.10;99.90;;;;;;5075871;28;20467;-59
2023/10/05 00:51:36;;;;;;;9.30;4.90;;;13.10;99.90;;;;;;5075948;28;20463;-60
2023/10/05 00:54:11;;;;;;;10.53;5.90;;;13.10;99.90;;;;;;5076153;28;20898;-60
2023/10/05 00:56:41;;;;;;;13.23;6.50;;;13.00;1.00;;;;;;5075500;28;20463;-59
2023/10/05 00:59:11;;;;;;;11.77;5.50;;;13.00;99.90;;;;;;5075740;28;20884;-60
2023/10/05 01:02:01;;;;;;;8.63;4.87;;;13.00;1.00;;;;;;5077392;28;20461;-60
2023/10/05 01:04:34;;;;;;;10.57;5.50;;;13.10;99.90;;;;;;5077677;28;20556;-60
2023/10/05 01:07:17;;;;;;;13.33;5.00;;;13.10;99.90;;;;;;5077188;28;20462;-60
2023/10/05 01:10:21;;;;;;;9.10;4.73;;;13.00;1.00;;;;;;5077768;28;20485;-60
2023/10/05 01:12:45;;;;;;;9.80;5.43;;;13.00;1.00;;;;;;5076651;28;20775;-60
2023/10/05 01:18:36;;;;;;;11.50;4.83;;;13.00;1.00;;;;;;5076743;28;20388;-60
2023/10/05 01:21:04;;;;;;;13.70;5.53;;;13.00;1.00;;;;;;5076829;28;20464;-60
2023/10/05 01:23:38;;;;;;;12.30;5.53;;;13.00;1.00;;;;;;5077258;28;20822;-60
2023/10/05 01:26:10;;;;;;;11.10;5.93;;;13.00;1.00;;;;;;5077420;28;20457;-60
2023/10/05 01:28:39;;;;;;;11.73;6.30;;;12.90;1.00;;;;;;5077084;28;20570;-60
2023/10/05 01:31:09;;;;;;;12.77;5.80;;;13.00;1.00;;;;;;5077251;28;20461;-60
2023/10/05 01:33:37;;;;;;;9.17;5.30;;;13.00;1.00;;;;;;5076870;28;20461;-60
2023/10/05 01:36:05;;;;;;;12.43;5.53;;;12.90;1.00;;;;;;5077534;28;20462;-60
2023/10/05 01:38:37;;;;;;;12.10;4.93;;;12.90;1.00;;;;;;5077483;28;20507;-60
2023/10/05 01:41:06;;;;;;;12.20;5.87;;;12.90;1.00;;;;;;5076826;28;20500;-60
2023/10/05 01:43:35;;;;;;;15.63;5.60;;;12.90;1.00;;;;;;5077004;28;20733;-60
2023/10/05 01:46:04;;;;;;;10.07;5.43;;;13.00;1.00;;;;;;5079072;28;20814;-60
2023/10/05 01:48:33;;;;;;;10.83;4.90;;;12.90;1.00;;;;;;5080462;28;20566;-60
2023/10/05 01:51:08;;;;;;;9.10;4.73;;;12.90;1.00;;;;;;5080545;28;20512;-60
2023/10/05 01:53:36;;;;;;;11.37;5.97;;;12.90;1.00;;;;;;5080259;28;20467;-60
2023/10/05 01:56:04;;;;;;;10.87;5.20;;;12.90;1.00;;;;;;5080345;28;20556;-60
2023/10/05 01:58:34;;;;;;;13.33;6.33;;;12.80;1.00;;;;;;5080930;28;20457;-60
2023/10/05 02:01:02;;;;;;;11.97;5.13;;;12.80;1.00;;;;;;5080303;28;20464;-60
2023/10/05 02:03:30;;;;;;;9.20;5.20;;;12.80;1.00;;;;;;5080124;28;20472;-60
2023/10/05 02:06:05;;;;;;;13.73;6.27;;;12.80;1.00;;;;;;5080118;28;20461;-60
2023/10/05 02:08:35;;;;;;;8.70;4.63;;;12.80;1.00;;;;;;5080194;28;20542;-60
2023/10/05 02:11:06;;;;;;;7.27;5.20;;;12.80;1.00;;;;;;5080185;28;20472;-60
2023/10/05 02:13:34;;;;;;;8.60;4.57;;;12.70;1.00;;;;;;5080003;28;20523;-60
2023/10/05 02:16:02;;;;;;;12.80;5.30;;;12.80;1.00;;;;;;5080183;28;20522;-62
2023/10/05 02:18:31;;;;;;;10.07;5.87;;;12.80;1.00;;;;;;5080459;28;20461;-60
2023/10/05 02:21:05;;;;;;;7.53;4.80;;;12.80;1.00;;;;;;5079920;28;20469;-61
2023/10/05 02:23:39;;;;;;;9.70;4.97;;;12.80;1.00;;;;;;5079929;28;20743;-60
2023/10/05 02:26:10;;;;;;;8.47;6.17;;;12.80;1.00;;;;;;5079874;28;20912;-60
2023/10/05 02:28:41;;;;;;;9.33;4.73;;;12.80;1.00;;;;;;5079982;28;20523;-60
2023/10/05 02:31:12;;;;;;;11.13;5.40;;;12.80;1.00;;;;;;5079925;28;20552;-60
2023/10/05 02:33:40;;;;;;;12.47;4.87;;;12.80;1.00;;;;;;5079799;28;20473;-61
2023/10/05 02:36:13;;;;;;;7.37;5.17;;;12.80;1.00;;;;;;5079785;28;20906;-60
2023/10/05 02:38:49;;;;;;;12.60;4.63;;;12.80;1.00;;;;;;5079700;28;20516;-60
2023/10/05 02:41:24;;;;;;;9.67;5.07;;;12.90;1.00;;;;;;5079939;28;20812;-61
2023/10/05 02:43:53;;;;;;;11.23;4.57;;;12.90;1.00;;;;;;5079624;28;20510;-60
2023/10/05 02:46:24;;;;;;;11.50;4.70;;;12.80;1.00;;;;;;5080025;28;20436;-60
2023/10/05 02:48:51;;;;;;;10.63;4.70;;;12.90;1.00;;;;;;5079388;28;20525;-59
2023/10/05 02:51:20;;;;;;;11.10;4.73;;;12.90;1.00;;;;;;5078999;28;20591;-60
2023/10/05 02:53:47;;;;;;;12.13;4.50;;;12.90;1.00;;;;;;5079406;28;20953;-60
2023/10/05 02:56:27;;;;;;;9.73;5.23;;;12.90;1.00;;;;;;5079530;28;20432;-60
2023/10/05 02:59:00;;;;;;;16.40;5.60;;;12.80;1.00;;;;;;5079334;28;20890;-60
2023/10/05 03:01:27;;;;;;;8.70;4.60;;;12.80;1.00;;;;;;5079035;28;20518;-60
2023/10/05 03:03:56;;;;;;;11.00;5.10;;;12.80;1.00;;;;;;5079252;28;20511;-60
2023/10/05 03:06:23;;;;;;;6.33;4.23;;;12.80;1.00;;;;;;5079096;28;20492;-60
2023/10/05 03:08:54;;;;;;;9.63;5.90;;;12.80;1.00;;;;;;5078256;28;20505;-60
2023/10/05 03:11:23;;;;;;;12.67;4.87;;;12.80;1.00;;;;;;5079142;28;20515;-60
2023/10/05 03:13:52;;;;;;;9.40;4.87;;;12.80;1.00;;;;;;5079127;28;20812;-60
2023/10/05 03:16:21;;;;;;;10.17;4.70;;;12.80;1.00;;;;;;5079110;28;20482;-60
2023/10/05 03:18:49;;;;;;;7.10;4.10;;;12.80;1.00;;;;;;5078597;28;20471;-60
2023/10/05 03:21:17;;;;;;;20.43;5.10;;;12.80;1.00;;;;;;5078275;28;20501;-60
2023/10/05 03:23:46;;;;;;;7.70;4.60;;;12.80;1.00;;;;;;5078796;28;20465;-60
2023/10/05 03:26:17;;;;;;;12.97;5.60;;;12.80;1.00;;;;;;5078599;28;20465;-60
2023/10/05 03:28:46;;;;;;;11.17;5.07;;;12.80;1.00;;;;;;5078601;28;20587;-60
2023/10/05 03:31:14;;;;;;;7.37;4.40;;;12.90;1.00;;;;;;5078653;28;20494;-60
2023/10/05 03:33:43;;;;;;;13.33;5.10;;;12.90;1.00;;;;;;5078442;28;20929;-60
2023/10/05 03:36:14;;;;;;;8.50;4.67;;;12.90;1.00;;;;;;5078397;28;21023;-60
2023/10/05 03:38:42;;;;;;;7.20;4.50;;;12.90;1.00;;;;;;5078555;28;20453;-60
2023/10/05 03:41:15;;;;;;;12.60;5.87;;;13.00;1.00;;;;;;5078391;28;20921;-60
2023/10/05 03:43:45;;;;;;;11.87;4.13;;;13.00;1.00;;;;;;5078192;28;20465;-60
2023/10/05 03:46:13;;;;;;;7.03;4.60;;;13.00;1.00;;;;;;5078448;28;20492;-61
2023/10/05 03:48:41;;;;;;;8.73;5.00;;;13.00;1.00;;;;;;5078430;28;20523;-60
2023/10/05 03:51:16;;;;;;;13.83;5.23;;;12.90;1.00;;;;;;5078140;28;20462;-60
2023/10/05 03:53:48;;;;;;;8.80;4.90;;;13.00;1.00;;;;;;5078401;28;20726;-61
2023/10/05 03:56:19;;;;;;;9.80;5.17;;;13.00;1.00;;;;;;5078227;28;20548;-60
2023/10/05 03:58:48;;;;;;;10.47;4.60;;;13.00;1.00;;;;;;5078318;28;20515;-60
2023/10/05 04:01:17;;;;;;;10.60;4.67;;;12.90;1.00;;;;;;5078117;28;20916;-60
2023/10/05 04:03:46;;;;;;;10.50;4.60;;;13.00;1.00;;;;;;5078306;28;20910;-60
2023/10/05 04:06:21;;;;;;;7.30;3.73;;;12.90;1.00;;;;;;5078261;28;20465;-60
2023/10/05 04:08:49;;;;;;;10.63;4.30;;;12.90;1.00;;;;;;5076866;28;20499;-61
2023/10/05 04:11:18;;;;;;;8.97;4.80;;;12.90;1.00;;;;;;5078214;28;20457;-61
2023/10/05 04:13:49;;;;;;;10.70;5.40;;;12.90;1.00;;;;;;5077714;28;20436;-61
2023/10/05 04:16:26;;;;;;;7.47;4.93;;;12.90;1.00;;;;;;5076718;28;20750;-60
2023/10/05 04:18:53;;;;;;;10.40;5.40;;;12.90;1.00;;;;;;5078151;28;20457;-60
2023/10/05 04:21:22;;;;;;;8.70;4.70;;;12.90;1.00;;;;;;5076886;28;20487;-60
2023/10/05 04:23:50;;;;;;;9.60;4.70;;;12.90;99.90;;;;;;5077972;28;20922;-60
2023/10/05 04:26:21;;;;;;;10.10;5.67;;;12.80;99.90;;;;;;5077886;28;20462;-60
2023/10/05 04:28:54;;;;;;;7.10;4.33;;;12.80;99.90;;;;;;5077607;28;20785;-60
2023/10/05 04:31:25;;;;;;;10.37;4.60;;;12.80;99.90;;;;;;5078167;28;20462;-61
2023/10/05 04:33:54;;;;;;;10.00;4.60;;;12.80;1.00;;;;;;5077451;28;20439;-60
2023/10/05 04:36:23;;;;;;;8.80;4.50;;;12.80;1.00;;;;;;5077816;28;20457;-60
2023/10/05 04:38:53;;;;;;;7.57;4.60;;;12.70;1.00;;;;;;5077994;28;20913;-60
2023/10/05 04:41:21;;;;;;;9.40;4.60;;;12.70;1.00;;;;;;5077768;28;20461;-60
2023/10/05 04:43:50;;;;;;;8.60;4.87;;;12.70;1.00;;;;;;5077692;28;20457;-61
2023/10/05 04:46:20;;;;;;;12.93;4.87;;;12.70;1.00;;;;;;5077709;28;20986;-60
2023/10/05 04:49:02;;;;;;;6.70;4.00;;;12.60;1.00;;;;;;5076881;28;20555;-61
2023/10/05 04:51:31;;;;;;;10.30;4.73;;;12.60;1.00;;;;;;5077313;28;20472;-60
2023/10/05 04:53:59;;;;;;;6.73;4.30;;;12.60;1.00;;;;;;5077890;28;20736;-60
2023/10/05 04:56:40;;;;;;;7.47;4.90;;;12.60;1.00;;;;;;5077144;28;20461;-59
2023/10/05 04:59:36;;;;;;;17.57;5.33;;;12.60;1.00;;;;;;5077535;28;20460;-60
2023/10/05 05:02:12;;;;;;;7.30;4.20;;;12.60;1.00;;;;;;5077872;28;20461;-61
2023/10/05 05:04:52;;;;;;;14.03;5.37;;;12.60;1.00;;;;;;5078053;28;20471;-61
2023/10/05 05:07:21;;;;;;;12.67;4.50;;;12.60;1.00;;;;;;5076764;28;20461;-60
2023/10/05 05:09:50;;;;;;;8.70;4.13;;;12.60;1.00;;;;;;5077307;28;20888;-60
2023/10/05 05:12:18;;;;;;;11.43;5.30;;;12.60;1.00;;;;;;5077319;28;20465;-60
2023/10/05 05:14:49;;;;;;;10.57;4.40;;;12.60;1.00;;;;;;5077493;28;20453;-60
2023/10/05 05:17:19;;;;;;;11.57;5.00;;;12.50;1.00;;;;;;5077334;28;20904;-60
2023/10/05 05:19:47;;;;;;;8.47;4.40;;;12.50;1.00;;;;;;5079932;28;20453;-60
2023/10/05 05:22:18;;;;;;;10.30;4.80;;;12.50;1.00;;;;;;5081431;28;20461;-60
2023/10/05 05:24:46;;;;;;;9.70;5.60;;;12.50;1.00;;;;;;5081390;28;20464;-60
2023/10/05 05:27:21;;;;;;;9.70;5.10;;;12.50;1.00;;;;;;5081125;28;20545;-60
2023/10/05 05:29:51;;;;;;;11.63;4.77;;;12.40;1.00;;;;;;5080714;28;20488;-59
2023/10/05 05:32:22;;;;;;;7.07;4.20;;;12.40;1.00;;;;;;5081001;28;20497;-59
2023/10/05 05:34:50;;;;;;;11.70;5.47;;;12.40;1.00;;;;;;5080951;28;20522;-59
2023/10/05 05:37:26;;;;;;;11.27;5.80;;;12.40;1.00;;;;;;5080355;28;20460;-59
2023/10/05 05:39:53;;;;;;;9.13;4.37;;;12.40;1.00;;;;;;5080455;28;20904;-59
2023/10/05 05:42:21;;;;;;;10.57;5.10;;;12.30;1.00;;;;;;5080750;28;20514;-58
2023/10/05 05:44:52;;;;;;;9.40;4.47;;;12.30;1.00;;;;;;5080035;28;20514;-59
2023/10/05 05:47:19;;;;;;;12.47;5.17;;;12.30;1.00;;;;;;5080110;28;20461;-59
2023/10/05 05:49:46;;;;;;;13.93;4.83;;;12.40;1.00;;;;;;5079794;28;20776;-60
2023/10/05 05:52:14;;;;;;;9.10;4.67;;;12.40;1.00;;;;;;5079860;28;20763;-59
2023/10/05 05:54:42;;;;;;;10.60;5.10;;;12.40;1.00;;;;;;5080312;28;20551;-59
2023/10/05 05:57:11;;;;;;;9.63;5.00;;;12.40;1.00;;;;;;5080252;28;20465;-59
2023/10/05 05:59:39;;;;;;;9.10;4.93;;;12.40;1.00;;;;;;5079772;28;20461;-59
2023/10/05 06:02:10;;;;;;;9.33;5.17;;;12.40;1.00;;;;;;5080110;28;20894;-59
2023/10/05 06:04:39;;;;;;;10.90;5.47;;;12.30;1.00;;;;;;5080152;28;20436;-59
2023/10/05 06:07:11;;;;;;;10.23;4.67;;;12.40;1.00;;;;;;5079591;28;20464;-59
2023/10/05 06:09:39;;;;;;;10.70;4.97;;;12.40;1.00;;;;;;5079184;28;20550;-59
2023/10/05 06:12:07;;;;;;;8.77;4.67;;;12.50;1.00;;;;;;5079891;28;20446;-59
2023/10/05 06:14:34;;;;;;;10.03;4.80;;;12.40;1.00;;;;;;5080147;28;20510;-59
2023/10/05 06:17:03;;;;;;;13.40;5.67;;;12.40;1.00;;;;;;5079859;28;20465;-59
2023/10/05 06:19:32;;;;;;;8.57;4.47;;;12.40;1.00;;;;;;5079553;28;20736;-59
2023/10/05 06:22:01;;;;;;;9.70;5.10;;;12.40;1.00;;;;;;5079045;28;20556;-57
2023/10/05 06:24:28;;;;;;;12.87;5.50;;;12.40;1.00;;;;;;5079138;28;20468;-60
2023/10/05 06:26:56;;;;;;;16.93;5.07;;;12.50;1.00;;;;;;5079454;28;20680;-59
2023/10/05 06:29:23;;;;;;;10.03;5.60;;;12.50;1.00;;;;;;5079554;28;21035;-59
2023/10/05 06:31:50;;;;;;;12.67;6.37;;;12.50;1.00;;;;;;5078684;28;20462;-59
2023/10/05 06:34:17;;;;;;;12.20;5.30;;;12.60;1.00;;;;;;5078967;28;20825;-59
2023/10/05 06:36:47;;;;;;;10.67;5.00;;;12.70;1.00;;;;;;5079591;28;20457;-59
2023/10/05 06:39:14;;;;;;;8.57;5.30;;;12.70;1.00;;;;;;5078627;28;20481;-59
2023/10/05 06:41:42;;;;;;;7.80;4.10;;;12.70;1.00;;;;;;5078677;28;20507;-59
2023/10/05 06:44:10;;;;;;;14.13;5.57;;;12.80;1.00;;;;;;5079179;28;20427;-59
2023/10/05 06:46:39;;;;;;;10.03;5.20;;;12.80;1.00;;;;;;5079153;28;20468;-59
2023/10/05 06:49:07;;;;;;;13.83;5.87;;;12.90;1.00;;;;;;5072951;28;20490;-59
2023/10/05 06:51:34;;;;;;;8.83;3.93;;;12.90;99.90;;;;;;5058624;28;20531;-59
2023/10/05 06:54:03;;;;;;;11.20;4.80;;;13.00;99.90;;;;;;5057571;28;20485;-59
2023/10/05 06:56:30;;;;;;;7.63;3.60;;;13.00;99.90;;;;;;5056778;28;20462;-58
2023/10/05 06:58:57;;;;;;;8.67;4.57;;;13.00;99.90;;;;;;5057082;28;20698;-60
2023/10/05 07:01:24;;;;;;;7.97;4.70;;;13.00;99.90;;;;;;5057606;28;20493;-59
2023/10/05 07:03:53;;;;;;;10.10;4.50;;;13.00;99.90;;;;;;5057944;28;20492;-59
2023/10/05 07:06:24;;;;;;;8.87;4.30;;;13.10;99.90;;;;;;5058385;28;20458;-59
2023/10/05 07:08:52;;;;;;;8.60;4.67;;;13.20;99.90;;;;;;5058146;28;20548;-59
2023/10/05 07:11:21;;;;;;;9.17;5.10;;;13.20;99.90;;;;;;5057574;28;20440;-59
2023/10/05 07:13:48;;;;;;;8.47;4.30;;;13.30;99.90;;;;;;5057216;28;20561;-60
2023/10/05 07:16:16;;;;;;;11.03;4.50;;;13.40;99.90;;;;;;5057501;28;20875;-59
2023/10/05 07:18:43;;;;;;;12.43;4.97;;;13.40;99.90;;;;;;5057604;28;20459;-60
2023/10/05 07:21:11;;;;;;;10.23;4.83;;;13.50;99.90;;;;;;5057101;28;20811;-59
2023/10/05 07:23:38;;;;;;;7.93;4.77;;;13.50;99.90;;;;;;5057164;28;20459;-59
2023/10/05 07:26:06;;;;;;;12.10;5.60;;;13.50;99.90;;;;;;5057876;28;20462;-59
2023/10/05 07:28:36;;;;;;;8.33;4.80;;;13.60;99.90;;;;;;5058568;28;20581;-59
2023/10/05 07:31:04;;;;;;;7.00;4.67;;;13.60;99.90;;;;;;5056762;28;20493;-59
2023/10/05 07:33:33;;;;;;;10.43;5.43;;;13.70;99.90;;;;;;5067596;28;20479;-59
2023/10/05 07:36:02;;;;;;;9.37;4.30;;;13.60;99.90;;;;;;5077062;28;20826;-59
2023/10/05 07:38:30;;;;;;;11.90;5.20;;;13.70;99.90;;;;;;5075185;28;20458;-59
2023/10/05 07:40:57;;;;;;;9.07;4.57;;;13.80;99.90;;;;;;5076498;28;20758;-59
2023/10/05 07:43:27;;;;;;;7.60;4.40;;;13.90;99.90;;;;;;5075606;28;20889;-60
2023/10/05 07:45:56;;;;;;;16.73;5.20;;;13.90;99.90;;;;;;5078313;28;20439;-59
2023/10/05 07:48:23;;;;;;;11.20;5.33;;;14.00;99.90;;;;;;5077174;28;20472;-59
2023/10/05 07:50:52;;;;;;;9.87;4.80;;;13.90;99.90;;;;;;5077754;28;21005;-59
2023/10/05 07:53:22;;;;;;;11.60;4.27;;;13.90;99.90;;;;;;5077265;28;20465;-58
2023/10/05 07:55:50;;;;;;;8.83;4.20;;;14.10;99.90;;;;;;5076581;28;20827;-58
2023/10/05 07:58:18;;;;;;;9.90;5.13;;;14.20;99.90;;;;;;5075254;28;20711;-59
2023/10/05 08:00:46;;;;;;;11.13;4.77;;;14.20;46.90;;;;;;5075727;28;20457;-59
2023/10/05 08:03:15;;;;;;;9.47;4.60;;;13.90;88.80;;;;;;5074949;28;20771;-59
2023/10/05 08:05:42;;;;;;;6.77;3.93;;;14.00;99.90;;;;;;5074807;28;20442;-58
2023/10/05 08:08:10;;;;;;;7.43;4.70;;;14.00;99.90;;;;;;5073734;28;20501;-60
2023/10/05 08:10:38;;;;;;;12.33;4.40;;;14.00;99.90;;;;;;5076380;28;20493;-59
2023/10/05 08:13:07;;;;;;;11.57;4.23;;;14.10;99.90;;;;;;5075744;28;20454;-59
2023/10/05 08:15:35;;;;;;;11.30;4.63;;;14.10;84.80;;;;;;5075900;28;20635;-60
2023/10/05 08:18:03;;;;;;;9.60;4.23;;;14.00;38.00;;;;;;5076680;28;20457;-58
2023/10/05 08:20:31;;;;;;;17.37;5.67;;;14.10;48.40;;;;;;5076331;28;20457;-58
2023/10/05 08:22:59;;;;;;;7.83;5.00;;;14.20;99.90;;;;;;5076077;28;20544;-59
2023/10/05 08:25:28;;;;;;;7.70;4.40;;;14.20;17.00;;;;;;5076915;28;20461;-57
2023/10/05 08:27:56;;;;;;;12.80;5.73;;;14.30;46.20;;;;;;5076596;28;20459;-59
2023/10/05 08:30:24;;;;;;;10.80;5.20;;;14.30;1.00;;;;;;5076834;28;20500;-59
2023/10/05 08:32:55;;;;;;;10.53;5.00;;;14.60;24.30;;;;;;5075952;28;20928;-60
2023/10/05 08:35:25;;;;;;;9.57;5.30;;;14.50;1.00;;;;;;5076613;28;20465;-59
2023/10/05 08:37:56;;;;;;;9.40;4.67;;;14.70;1.00;;;;;;5076304;28;20530;-59
2023/10/05 08:40:37;;;;;;;10.37;4.93;;;14.80;1.00;;;;;;5077147;28;20457;-60
2023/10/05 08:43:09;;;;;;;7.40;3.67;;;14.70;1.00;;;;;;5077004;28;20461;-59
2023/10/05 08:45:50;;;;;;;8.57;5.00;;;14.70;1.00;;;;;;5077114;28;20491;-59
2023/10/05 08:48:27;;;;;;;10.10;5.10;;;14.80;1.00;;;;;;5076427;28;20510;-59
2023/10/05 08:50:57;;;;;;;9.83;4.17;;;14.80;1.00;;;;;;5075337;28;20528;-58
2023/10/05 08:53:27;;;;;;;9.03;4.40;;;15.00;1.00;;;;;;5076094;28;20511;-60
2023/10/05 08:55:58;;;;;;;8.07;4.27;;;15.10;1.00;;;;;;5080316;28;20514;-59
2023/10/05 08:58:28;;;;;;;10.73;4.50;;;15.30;1.00;;;;;;5080765;28;20559;-59
2023/10/05 09:00:59;;;;;;;8.37;4.87;;;15.50;1.00;;;;;;5080690;28;20457;-59
2023/10/05 09:03:36;;;;;;;12.00;4.80;;;15.80;1.00;;;;;;5080190;28;20529;-60
2023/10/05 09:06:16;;;;;;;11.37;4.53;;;15.90;1.00;;;;;;5081220;28;20431;-60
2023/10/05 09:08:51;;;;;;;10.30;4.57;;;15.90;1.00;;;;;;5081006;28;20575;-59
2023/10/05 09:11:31;;;;;;;12.20;5.70;;;15.80;99.90;;;;;;5079951;28;20492;-59
2023/10/05 09:14:05;;;;;;;14.57;5.97;;;16.00;99.90;;;;;;5081218;28;20488;-60
2023/10/05 09:16:41;;;;;;;11.93;4.60;;;16.10;99.90;;;;;;5081332;28;20886;-59
2023/10/05 09:19:12;;;;;;;10.30;5.10;;;16.00;99.90;;;;;;5080971;28;20877;-60
2023/10/05 09:21:50;;;;;;;11.43;4.47;;;15.90;99.90;;;;;;5080932;28;20457;-60
2023/10/05 09:24:21;;;;;;;9.60;4.10;;;16.10;99.90;;;;;;5081305;28;20525;-59
2023/10/05 09:26:55;;;;;;;9.30;4.37;;;16.10;99.90;;;;;;5080336;28;20515;-60
2023/10/05 09:29:27;;;;;;;11.00;5.63;;;16.00;99.90;;;;;;5080549;28;20464;-59
2023/10/05 09:31:56;;;;;;;7.40;4.53;;;15.70;99.90;;;;;;5081016;28;20491;-60
2023/10/05 09:34:38;;;;;;;10.90;5.00;;;15.60;99.90;;;;;;5080979;28;20461;-60
2023/10/05 09:37:08;;;;;;;7.50;4.53;;;15.80;99.90;;;;;;5078699;28;20465;-60
2023/10/05 09:39:43;;;;;;;9.17;4.77;;;15.80;99.90;;;;;;5080561;28;20502;-59
2023/10/05 09:42:22;;;;;;;13.20;4.80;;;15.90;99.90;;;;;;5080761;28;20513;-59
2023/10/05 09:44:53;;;;;;;7.43;4.23;;;16.00;99.90;;;;;;5080325;28;20555;-60
2023/10/05 09:47:27;;;;;;;9.13;4.63;;;16.10;99.90;;;;;;5080575;28;20899;-59
2023/10/05 09:49:56;;;;;;;7.03;4.13;;;16.00;99.90;;;;;;5079937;28;20489;-60
2023/10/05 09:52:34;;;;;;;11.93;4.60;;;16.20;99.90;;;;;;5079216;28;20457;-61
2023/10/05 09:55:05;;;;;;;12.20;4.90;;;16.10;99.90;;;;;;5079885;28;20501;-59
2023/10/05 09:57:40;;;;;;;10.50;4.40;;;16.00;99.90;;;;;;5080214;28;20487;-60
2023/10/05 10:00:14;;;;;;;7.33;3.87;;;16.10;99.90;;;;;;5080442;28;20456;-59
2023/10/05 10:02:42;;;;;;;10.80;4.77;;;16.30;99.90;;;;;;5080035;28;20828;-60
2023/10/05 10:05:33;;;;;;;9.97;4.83;;;16.50;99.90;;;;;;5078794;28;20458;-60
2023/10/05 10:08:09;;;;;;;7.80;4.80;;;16.50;99.90;;;;;;5079839;28;20516;-60
2023/10/05 10:10:41;;;;;;;8.70;4.20;;;16.60;99.90;;;;;;5079164;28;20489;-60
2023/10/05 10:13:12;;;;;;;10.70;4.30;;;16.50;99.90;;;;;;5078436;28;20559;-60
2023/10/05 10:15:39;;;;;;;9.03;4.53;;;16.50;99.90;;;;;;5079226;28;20530;-59
2023/10/05 10:18:14;;;;;;;7.10;4.03;;;16.60;99.90;;;;;;5078442;28;20751;-59
2023/10/05 10:20:45;;;;;;;10.07;4.47;;;16.50;99.90;;;;;;5078851;28;20452;-60
2023/10/05 10:23:19;;;;;;;10.67;4.30;;;16.50;99.90;;;;;;5078938;28;20461;-60
2023/10/05 10:25:50;;;;;;;7.30;4.00;;;16.40;99.90;;;;;;5078808;28;20469;-60
2023/10/05 10:28:24;;;;;;;15.10;4.87;;;16.40;99.90;;;;;;5080010;28;20468;-60
2023/10/05 10:31:19;;;;;;;7.30;3.83;;;16.20;99.90;;;;;;5079328;28;20493;-60
2023/10/05 10:33:50;;;;;;;6.20;4.30;;;16.40;99.90;;;;;;5079345;28;20551;-60
2023/10/05 10:36:23;;;;;;;12.87;3.80;;;16.40;99.90;;;;;;5079468;28;20427;-62
2023/10/05 10:38:51;;;;;;;6.67;3.80;;;16.40;99.90;;;;;;5079062;28;20458;-60
2023/10/05 10:41:22;;;;;;;9.27;3.60;;;16.30;99.90;;;;;;5079361;28;20449;-60
2023/10/05 10:43:54;;;;;;;9.70;3.70;;;16.30;99.90;;;;;;5079016;28;20496;-60
2023/10/05 10:46:28;;;;;;;8.33;4.00;;;16.40;99.90;;;;;;5079641;28;20507;-60
2023/10/05 10:48:58;;;;;;;11.70;5.10;;;16.40;99.90;;;;;;5078720;28;20825;-59
2023/10/05 10:51:31;;;;;;;9.53;4.00;;;16.30;99.90;;;;;;5078789;28;20493;-60
2023/10/05 10:54:00;;;;;;;8.27;4.13;;;16.30;99.90;;;;;;5079383;28;20944;-60
2023/10/05 10:56:41;;;;;;;11.43;4.23;;;16.50;99.90;;;;;;5078061;28;20461;-60
2023/10/05 10:59:11;;;;;;;9.80;3.67;;;16.60;99.90;;;;;;5078630;28;20461;-60
2023/10/05 11:01:41;;;;;;;9.90;4.13;;;16.90;99.90;;;;;;5079207;28;20500;-60
2023/10/05 11:04:23;;;;;;;8.43;4.00;;;16.80;15.70;;;;;;5078943;28;20457;-59
2023/10/05 11:06:56;;;;;;;9.30;3.50;;;16.70;3.40;;;;;;5078816;28;20880;-60
2023/10/05 11:09:35;;;;;;;5.83;4.07;;;16.70;13.50;;;;;;5078812;28;20937;-60
2023/10/05 11:12:11;;;;;;;8.27;3.77;;;16.80;48.70;;;;;;5078981;28;20488;-60
2023/10/05 11:14:45;;;;;;;6.80;3.70;;;17.20;9.40;;;;;;5078845;28;20496;-60
2023/10/05 11:17:26;;;;;;;7.40;3.80;;;17.10;1.00;;;;;;5077771;28;20457;-60
2023/10/05 11:19:53;;;;;;;7.30;4.20;;;17.20;1.00;;;;;;5077432;28;20511;-60
2023/10/05 11:22:25;;;;;;;12.20;3.87;;;17.30;1.00;;;;;;5078465;28;20484;-60
2023/10/05 11:25:15;;;;;;;6.93;3.63;;;17.40;1.00;;;;;;5078189;28;20822;-60
2023/10/05 11:27:54;;;;;;;11.90;4.80;;;17.30;1.00;;;;;;5078446;28;20772;-60
2023/10/05 11:30:24;;;;;;;6.83;3.77;;;17.50;1.00;;;;;;5076956;28;20583;-60
2023/10/05 11:32:56;;;;;;;11.40;4.10;;;17.40;1.00;;;;;;5073580;28;20469;-59
2023/10/05 11:35:40;;;;;;;10.13;3.97;;;17.60;1.00;;;;;;5062251;28;20465;-58
2023/10/05 11:38:14;;;;;;;7.47;3.87;;;17.90;1.00;;;;;;5074874;28;20488;-59
2023/10/05 11:40:49;;;;;;;9.80;3.53;;;18.10;1.00;;;;;;5077433;28;20445;-59
2023/10/05 11:43:18;;;;;;;5.43;3.43;;;18.20;1.00;;;;;;5076547;28;20839;-60
2023/10/05 11:46:12;;;;;;;8.17;4.00;;;18.30;1.00;;;;;;5076511;28;20515;-59
2023/10/05 11:48:48;;;;;;;7.50;3.33;;;18.40;1.00;;;;;;5077005;28;20831;-59
2023/10/05 11:51:19;;;;;;;6.50;4.20;;;18.40;1.00;;;;;;5076310;28;20971;-60
2023/10/05 11:53:50;;;;;;;8.27;4.10;;;18.20;1.00;;;;;;5076976;28;20971;-60
2023/10/05 11:56:20;;;;;;;9.63;3.40;;;18.10;1.00;;;;;;5076780;28;20461;-59
2023/10/05 11:58:49;;;;;;;7.70;4.10;;;18.20;1.00;;;;;;5076207;28;20870;-59
2023/10/05 12:01:19;;;;;;;6.80;3.33;;;18.20;1.00;;;;;;5076067;28;20456;-60
2023/10/05 12:03:47;;;;;;;8.50;3.70;;;18.10;1.00;;;;;;5077107;28;20491;-60
2023/10/05 12:06:15;;;;;;;6.43;3.33;;;18.10;1.00;;;;;;5077047;28;20488;-58
2023/10/05 12:08:43;;;;;;;5.80;3.40;;;18.50;1.00;;;;;;5076738;28;20534;-60
2023/10/05 12:11:13;;;;;;;8.40;3.50;;;18.90;1.00;;;;;;5077251;28;20492;-60
2023/10/05 12:13:40;;;;;;;8.83;3.70;;;19.10;99.90;;;;;;5077886;28;20461;-60
2023/10/05 12:16:12;;;;;;;7.83;3.30;;;18.90;99.90;;;;;;5077440;28;20559;-60
2023/10/05 12:18:41;;;;;;;7.33;3.40;;;18.60;99.90;;;;;;5077455;28;20813;-60
2023/10/05 12:21:11;;;;;;;7.63;3.70;;;18.60;99.90;;;;;;5075733;28;20564;-60
2023/10/05 12:23:40;;;;;;;5.10;3.47;;;18.40;99.90;;;;;;5077433;28;20930;-59
2023/10/05 12:26:10;;;;;;;7.73;3.93;;;18.30;99.90;;;;;;5077190;28;20462;-59
2023/10/05 12:28:41;;;;;;;7.23;4.43;;;18.40;99.90;;;;;;5076641;28;20548;-59
2023/10/05 12:31:12;;;;;;;6.87;3.67;;;18.60;99.90;;;;;;5077393;28;20489;-60
2023/10/05 12:33:40;;;;;;;8.93;3.73;;;18.90;99.90;;;;;;5077377;28;20938;-60
2023/10/05 12:36:09;;;;;;;9.03;3.47;;;18.90;99.90;;;;;;5077196;28;20461;-59
2023/10/05 12:38:37;;;;;;;7.47;3.83;;;18.70;99.90;;;;;;5077257;28;20516;-60
2023/10/05 12:41:13;;;;;;;6.27;3.40;;;18.80;99.90;;;;;;5076644;28;20457;-60
2023/10/05 12:43:44;;;;;;;4.60;2.70;;;18.80;99.90;;;;;;5077813;28;20457;-60
2023/10/05 12:46:13;;;;;;;6.97;3.67;;;18.30;99.90;;;;;;5077000;28;20480;-60
2023/10/05 12:48:41;;;;;;;7.37;3.47;;;18.20;99.90;;;;;;5077515;28;20495;-60
2023/10/05 12:51:08;;;;;;;6.17;3.43;;;18.30;99.90;;;;;;5077639;28;20467;-60
2023/10/05 12:53:37;;;;;;;5.33;3.43;;;18.30;99.90;;;;;;5077609;28;20886;-60
2023/10/05 12:56:06;;;;;;;8.40;4.13;;;18.30;99.90;;;;;;5076598;28;20947;-60
2023/10/05 12:58:33;;;;;;;7.50;3.43;;;18.40;99.90;;;;;;5077034;28;20503;-60
2023/10/05 13:01:07;;;;;;;11.40;3.93;;;18.70;99.90;;;;;;5077370;28;20887;-60
2023/10/05 13:03:37;;;;;;;8.73;4.23;;;18.90;99.90;;;;;;5077460;28;20796;-60
2023/10/05 13:06:10;;;;;;;7.73;3.30;;;18.80;99.90;;;;;;5077283;28;20483;-60
2023/10/05 13:08:43;;;;;;;9.63;4.20;;;18.60;99.90;;;;;;5076878;28;20555;-60
2023/10/05 13:11:11;;;;;;;7.17;3.50;;;18.40;99.90;;;;;;5077390;28;20512;-60